createdAt,value
2022-08-19T00:00:55.152Z,12.70
2022-08-19T00:05:57.590Z,12.00
2022-08-19T00:10:59.998Z,11.97
2022-08-19T00:16:03.566Z,11.93
2022-08-19T00:21:08.562Z,12.20
2022-08-19T00:26:11.748Z,11.47
2022-08-19T00:31:14.193Z,12.33
2022-08-19T00:36:16.806Z,11.70
2022-08-19T00:41:22.473Z,12.37
2022-08-19T00:46:25.062Z,12.30
2022-08-19T00:51:30.792Z,12.37
2022-08-19T00:56:34.559Z,12.13
2022-08-19T01:01:43.069Z,12.10
2022-08-19T01:06:45.606Z,12.27
2022-08-19T01:11:48.420Z,11.57
2022-08-19T01:16:55.431Z,12.27
2022-08-19T01:22:17.642Z,11.77
2022-08-19T01:27:21.878Z,11.63
2022-08-19T01:32:33.909Z,12.17
2022-08-19T01:37:48.637Z,11.63
2022-08-19T01:42:52.915Z,11.70
2022-08-19T01:48:01.790Z,12.40
2022-08-19T01:53:08.237Z,11.90
2022-08-19T01:58:19.779Z,11.33
2022-08-19T02:03:22.278Z,11.70
2022-08-19T02:08:24.727Z,11.77
2022-08-19T02:13:28.203Z,11.33
2022-08-19T02:18:30.672Z,11.57
2022-08-19T02:23:33.098Z,11.20
2022-08-19T02:28:35.887Z,11.30
2022-08-19T02:33:38.517Z,10.90
2022-08-19T02:38:41.521Z,11.63
2022-08-19T02:44:02.727Z,11.10
2022-08-19T02:49:08.762Z,10.43
2022-08-19T02:54:13.505Z,10.17
2022-08-19T02:59:15.955Z,11.40
2022-08-19T03:04:18.449Z,10.90
2022-08-19T03:09:21.433Z,10.63
2022-08-19T03:14:24.256Z,10.80
2022-08-19T03:19:26.850Z,10.57
2022-08-19T03:24:29.365Z,11.10
2022-08-19T03:29:32.898Z,10.43
2022-08-19T03:34:38.543Z,11.20
2022-08-19T03:39:43.161Z,10.90
2022-08-19T03:44:46.043Z,11.77
2022-08-19T03:49:48.539Z,11.77
2022-08-19T03:54:50.944Z,11.53
2022-08-19T03:59:53.427Z,11.33
2022-08-19T04:04:56.404Z,12.03
2022-08-19T04:09:58.817Z,11.23
2022-08-19T04:15:01.240Z,11.57
2022-08-19T04:20:06.922Z,12.17
2022-08-19T04:25:10.243Z,12.10
2022-08-19T04:30:14.031Z,15.20
2022-08-19T04:35:19.386Z,12.60
2022-08-19T04:40:43.112Z,15.43
2022-08-19T04:45:46.821Z,14.00
2022-08-19T04:50:49.281Z,15.13
2022-08-19T04:55:52.759Z,12.80
2022-08-19T05:01:14.015Z,12.77
2022-08-19T05:06:18.954Z,12.50
2022-08-19T05:11:38.563Z,15.77
2022-08-19T05:17:06.477Z,15.30
2022-08-19T05:22:33.924Z,14.57
2022-08-19T05:27:36.929Z,13.53
2022-08-19T05:32:41.137Z,14.63
2022-08-19T05:37:43.609Z,13.87
2022-08-19T05:43:08.446Z,12.07
2022-08-19T05:48:12.349Z,12.60
2022-08-19T05:53:17.342Z,12.00
2022-08-19T05:58:19.778Z,11.90
2022-08-19T06:03:25.679Z,15.40
2022-08-19T06:08:33.875Z,14.10
2022-08-19T06:13:37.147Z,16.00
2022-08-19T06:18:39.650Z,11.23
2022-08-19T06:23:42.115Z,11.43
2022-08-19T06:28:47.860Z,11.67
2022-08-19T06:33:50.932Z,13.47
2022-08-19T06:38:53.546Z,13.07
2022-08-19T06:43:56.838Z,13.60
2022-08-19T06:49:00.503Z,12.30
2022-08-19T06:54:04.456Z,11.93
2022-08-19T06:59:13.339Z,12.43
2022-08-19T07:04:19.023Z,12.77
2022-08-19T07:09:21.633Z,12.67
2022-08-19T07:14:27.719Z,11.83
2022-08-19T07:19:30.340Z,11.73
2022-08-19T07:24:33.922Z,17.20
2022-08-19T07:29:37.727Z,13.77
2022-08-19T07:34:40.546Z,14.80
2022-08-19T07:39:47.921Z,12.33
2022-08-19T07:44:51.107Z,14.37
2022-08-19T07:49:53.765Z,11.93
2022-08-19T07:54:56.396Z,14.03
2022-08-19T07:59:59.497Z,12.97
2022-08-19T08:05:20.692Z,13.43
2022-08-19T08:10:24.805Z,14.83
2022-08-19T08:15:27.296Z,13.63
2022-08-19T08:20:32.107Z,14.67
2022-08-19T08:25:36.479Z,15.23
2022-08-19T08:30:42.455Z,16.17
2022-08-19T08:35:47.957Z,14.03
2022-08-19T08:41:07.772Z,16.30
2022-08-19T08:46:19.179Z,15.43
2022-08-19T08:51:47.606Z,13.40
2022-08-19T08:56:52.727Z,13.90
2022-08-19T09:01:56.192Z,14.00
2022-08-19T09:07:22.891Z,13.77
2022-08-19T09:12:39.314Z,14.85
2022-08-19T09:17:45.507Z,13.43
2022-08-19T09:22:52.718Z,16.03
2022-08-19T09:28:02.303Z,14.63
2022-08-19T09:33:06.177Z,16.13
2022-08-19T09:38:09.093Z,19.30
2022-08-19T09:43:13.114Z,15.10
2022-08-19T09:48:19.056Z,16.60
2022-08-19T09:53:27.522Z,17.23
2022-08-19T09:58:31.708Z,17.70
2022-08-19T10:03:36.347Z,15.40
2022-08-19T10:08:40.865Z,12.40
2022-08-19T10:13:53.200Z,15.97
2022-08-19T10:18:58.740Z,17.88
2022-08-19T10:24:05.056Z,17.95
2022-08-19T10:29:09.261Z,15.43
2022-08-19T10:34:17.581Z,14.75
2022-08-19T10:39:35.442Z,15.32
2022-08-19T10:44:45.770Z,11.13
2022-08-19T10:50:09.159Z,18.23
2022-08-19T10:55:33.283Z,14.82
2022-08-19T11:00:35.874Z,15.13
2022-08-19T11:05:40.682Z,12.23
2022-08-19T11:10:43.795Z,14.43
2022-08-19T11:16:03.977Z,17.95
2022-08-19T11:21:18.196Z,10.60
2022-08-19T11:26:22.696Z,18.67
2022-08-19T11:31:29.205Z,9.82
2022-08-19T11:36:33.642Z,13.25
2022-08-19T11:41:36.341Z,19.90
2022-08-19T11:46:39.269Z,10.27
2022-08-19T11:51:44.126Z,13.90
2022-08-19T11:56:48.809Z,9.77
2022-08-19T12:01:51.267Z,9.60
2022-08-19T12:06:54.063Z,16.08
2022-08-19T12:11:57.269Z,11.52
2022-08-19T12:16:59.687Z,13.02
2022-08-19T12:22:04.389Z,8.82
2022-08-19T12:27:08.926Z,8.70
2022-08-19T12:32:15.892Z,15.95
2022-08-19T12:37:18.308Z,10.27
2022-08-19T12:42:23.337Z,12.70
2022-08-19T12:47:27.408Z,7.80
2022-08-19T12:52:29.952Z,12.07
2022-08-19T12:57:35.134Z,12.07
2022-08-19T13:02:39.379Z,13.18
2022-08-19T13:07:42.410Z,10.43
2022-08-19T13:12:46.776Z,11.95
2022-08-19T13:17:51.346Z,12.68
2022-08-19T13:22:54.781Z,11.45
2022-08-19T13:27:57.264Z,13.32
2022-08-19T13:33:12.027Z,14.10
2022-08-19T13:38:17.421Z,13.13
2022-08-19T13:43:23.814Z,12.48
2022-08-19T13:48:32.072Z,13.85
2022-08-19T13:53:34.585Z,13.77
2022-08-19T13:58:38.037Z,18.60
2022-08-19T14:03:40.470Z,13.00
2022-08-19T14:08:46.024Z,14.25
2022-08-19T14:13:48.915Z,15.57
2022-08-19T14:18:52.361Z,13.55
2022-08-19T14:23:54.946Z,15.95
2022-08-19T14:28:58.727Z,14.55
2022-08-19T14:34:01.799Z,14.48
2022-08-19T14:39:05.446Z,16.05
2022-08-19T14:44:08.335Z,14.00
2022-08-19T14:49:10.764Z,16.38
2022-08-19T14:54:14.086Z,16.65
2022-08-19T14:59:16.773Z,17.15
2022-08-19T15:04:19.315Z,15.55
2022-08-19T15:09:21.856Z,15.57
2022-08-19T15:14:24.520Z,17.10
2022-08-19T15:19:27.016Z,15.70
2022-08-19T15:24:29.543Z,15.15
2022-08-19T15:29:33.368Z,15.55
2022-08-19T15:34:36.159Z,15.55
2022-08-19T15:39:38.752Z,17.15
2022-08-19T15:44:41.806Z,14.73
2022-08-19T15:49:44.475Z,14.82
2022-08-19T15:54:47.102Z,16.05
2022-08-19T16:00:11.502Z,14.07
2022-08-19T16:05:36.598Z,13.35
2022-08-19T16:10:40.031Z,13.70
2022-08-19T16:15:43.175Z,13.27
2022-08-19T16:20:46.753Z,13.23
2022-08-19T16:25:49.612Z,12.27
2022-08-19T16:30:52.552Z,13.00
2022-08-19T16:36:00.224Z,13.57
2022-08-19T16:41:09.762Z,14.25
2022-08-19T16:46:12.387Z,14.90
2022-08-19T16:51:22.871Z,15.32
2022-08-19T16:56:25.887Z,16.65
2022-08-19T17:01:29.253Z,15.00
2022-08-19T17:06:32.148Z,16.77
2022-08-19T17:11:35.705Z,18.27
2022-08-19T17:16:38.287Z,15.85
2022-08-19T17:21:41.224Z,19.90
2022-08-19T17:26:44.004Z,19.70
2022-08-19T17:31:46.420Z,19.25
2022-08-19T17:36:48.902Z,18.97
2022-08-19T17:41:52.038Z,19.80
2022-08-19T17:46:56.678Z,19.27
2022-08-19T17:51:59.718Z,18.80
2022-08-19T17:57:02.222Z,18.50
2022-08-19T18:02:07.209Z,18.50
2022-08-19T18:07:12.570Z,20.43
2022-08-19T18:12:17.044Z,18.77
2022-08-19T18:17:22.977Z,19.00
2022-08-19T18:22:34.006Z,19.83
2022-08-19T18:27:36.735Z,21.07
2022-08-19T18:32:40.051Z,19.97
2022-08-19T18:37:44.224Z,21.30
2022-08-19T18:43:06.341Z,22.07
2022-08-19T18:48:28.321Z,22.27
2022-08-19T18:53:33.209Z,24.03
2022-08-19T18:58:37.189Z,25.90
2022-08-19T19:03:45.748Z,26.17
2022-08-19T19:08:50.241Z,27.37
2022-08-19T19:13:53.521Z,28.97
2022-08-19T19:18:56.139Z,27.57
2022-08-19T19:23:58.587Z,28.03
2022-08-19T19:29:00.966Z,27.53
2022-08-19T19:34:03.919Z,28.67
2022-08-19T19:39:07.416Z,26.73
2022-08-19T19:44:32.498Z,27.93
2022-08-19T19:49:33.944Z,28.37
2022-08-19T19:54:37.793Z,29.33
2022-08-19T19:59:44.882Z,26.77
2022-08-19T20:04:56.276Z,27.97
2022-08-19T20:10:00.040Z,27.67
2022-08-19T20:15:03.349Z,25.47
2022-08-19T20:20:06.128Z,25.47
2022-08-19T20:25:14.487Z,24.33
2022-08-19T20:30:20.740Z,25.50
2022-08-19T20:35:23.489Z,24.20
2022-08-19T20:40:27.094Z,25.63
2022-08-19T20:45:32.944Z,25.43
2022-08-19T20:50:37.192Z,23.23
2022-08-19T20:55:39.771Z,23.90
2022-08-19T21:00:46.436Z,24.00
2022-08-19T21:05:49.201Z,25.03
2022-08-19T21:10:52.976Z,24.20
2022-08-19T21:15:55.998Z,25.33
2022-08-19T21:20:58.509Z,24.53
2022-08-19T21:26:01.559Z,24.77
2022-08-19T21:31:06.585Z,23.97
2022-08-19T21:36:09.361Z,23.23
2022-08-19T21:41:11.935Z,26.33
2022-08-19T21:46:14.963Z,26.37
2022-08-19T21:51:18.189Z,32.07
2022-08-19T21:56:24.439Z,31.83
2022-08-19T22:01:26.893Z,36.53
2022-08-19T22:06:29.343Z,36.00
2022-08-19T22:11:31.847Z,34.90
2022-08-19T22:16:34.244Z,34.57
2022-08-19T22:21:40.233Z,35.70
2022-08-19T22:26:43.537Z,35.00
2022-08-19T22:31:46.003Z,34.93
2022-08-19T22:36:57.481Z,33.87
2022-08-19T22:41:59.916Z,31.77
2022-08-19T22:47:02.470Z,33.00
2022-08-19T22:52:20.505Z,33.77
2022-08-19T22:57:23.851Z,31.47
2022-08-19T23:02:30.082Z,32.60
2022-08-19T23:07:32.916Z,31.60
2022-08-19T23:12:39.267Z,30.57
2022-08-19T23:17:42.147Z,33.47
2022-08-19T23:22:48.578Z,32.47
2022-08-19T23:28:09.868Z,31.70
2022-08-19T23:33:24.875Z,31.90
2022-08-19T23:38:29.527Z,30.93
2022-08-19T23:43:32.064Z,32.03
2022-08-19T23:48:39.217Z,30.33
2022-08-19T23:53:42.420Z,31.63
2022-08-19T23:58:49.084Z,33.97
